Time,TemperatureF,DewpointF,PressureIn,WindDirection,WindDirectionDegrees,WindSpeedMPH,WindSpeedGustMPH,Humidity,HourlyPrecipIn,Conditions,Clouds,dailyrainin,SoftwareType,DateUTC
2013-07-18 00:00:00,64.8,55.6,29.87,NW,313,1.0,1.0,72,0.00,,,0.00,Wunderground v.1.15,2013-07-18 07:00:00,
2013-07-18 00:05:00,64.9,56.0,29.86,NNW,336,1.0,1.0,73,0.00,,,0.00,Wunderground v.1.15,2013-07-18 07:05:00,
2013-07-18 00:10:00,64.9,56.4,29.86,NNW,336,1.0,1.0,74,0.00,,,0.00,Wunderground v.1.15,2013-07-18 07:10:00,
2013-07-18 00:21:00,64.9,56.4,29.86,NNW,336,1.0,1.0,74,0.00,,,0.00,Wunderground v.1.15,2013-07-18 07:21:00,
2013-07-18 00:25:00,64.9,56.4,29.86,NNW,336,1.0,1.0,74,0.00,,,0.00,Wunderground v.1.15,2013-07-18 07:25:00,
2013-07-18 00:30:00,64.8,56.7,29.86,NNW,336,1.0,1.0,75,0.00,,,0.00,Wunderground v.1.15,2013-07-18 07:30:00,
2013-07-18 00:35:00,64.6,56.5,29.86,NNW,336,0.0,0.0,75,0.00,,,0.00,Wunderground v.1.15,2013-07-18 07:35:00,
2013-07-18 00:46:00,64.5,56.8,29.86,NNW,336,0.0,0.0,76,0.00,,,0.00,Wunderground v.1.15,2013-07-18 07:46:00,
2013-07-18 00:55:00,64.3,56.9,29.86,NNW,336,0.0,1.0,77,0.00,,,0.00,Wunderground v.1.15,2013-07-18 07:55:00,
2013-07-18 01:00:00,64.3,56.9,29.86,NNW,336,1.0,1.0,77,0.00,,,0.00,Wunderground v.1.15,2013-07-18 08:00:00,
2013-07-18 01:10:00,64.0,57.0,29.85,NNW,336,0.0,0.0,78,0.00,,,0.00,Wunderground v.1.15,2013-07-18 08:10:00,
2013-07-18 01:20:00,63.7,56.7,29.85,NNW,336,0.0,0.0,78,0.00,,,0.00,Wunderground v.1.15,2013-07-18 08:20:00,
2013-07-18 01:40:00,62.8,56.2,29.85,NNW,336,0.0,0.0,79,0.00,,,0.00,Wunderground v.1.15,2013-07-18 08:40:00,
2013-07-18 01:45:00,62.7,56.1,29.85,NNW,336,0.0,0.0,79,0.00,,,0.00,Wunderground v.1.15,2013-07-18 08:45:00,
2013-07-18 01:55:00,62.5,56.2,29.85,NNW,336,0.0,0.0,80,0.00,,,0.00,Wunderground v.1.15,2013-07-18 08:55:00,
2013-07-18 02:10:00,62.0,56.1,29.84,NNW,336,0.0,0.0,81,0.00,,,0.00,Wunderground v.1.15,2013-07-18 09:10:00,
2013-07-18 02:15:00,62.0,56.1,29.84,NNW,336,0.0,0.0,81,0.00,,,0.00,Wunderground v.1.15,2013-07-18 09:15:00,
2013-07-18 02:20:00,61.9,56.0,29.84,NNW,336,0.0,0.0,81,0.00,,,0.00,Wunderground v.1.15,2013-07-18 09:20:00,
2013-07-18 02:35:00,61.4,55.9,29.84,NNW,336,0.0,0.0,82,0.00,,,0.00,Wunderground v.1.15,2013-07-18 09:35:00,
2013-07-18 02:40:00,61.2,55.7,29.84,NNW,336,0.0,0.0,82,0.00,,,0.00,Wunderground v.1.15,2013-07-18 09:40:00,
2013-07-18 02:45:00,61.1,55.6,29.84,NNW,336,0.0,0.0,82,0.00,,,0.00,Wunderground v.1.15,2013-07-18 09:45:00,
2013-07-18 02:55:00,61.1,55.9,29.84,NNW,336,0.0,0.0,83,0.00,,,0.00,Wunderground v.1.15,2013-07-18 09:55:00,
2013-07-18 03:00:00,61.1,55.9,29.84,NNW,336,0.0,0.0,83,0.00,,,0.00,Wunderground v.1.15,2013-07-18 10:00:00,
2013-07-18 03:05:00,60.9,55.7,29.84,NNW,336,0.0,0.0,83,0.00,,,0.00,Wunderground v.1.15,2013-07-18 10:05:00,
2013-07-18 03:10:00,60.8,55.6,29.84,NNW,336,0.0,0.0,83,0.00,,,0.00,Wunderground v.1.15,2013-07-18 10:10:00,
2013-07-18 03:15:00,60.6,55.4,29.84,NNW,336,0.0,0.0,83,0.00,,,0.00,Wunderground v.1.15,2013-07-18 10:15:00,
2013-07-18 03:20:00,60.6,55.4,29.84,NNW,336,0.0,0.0,83,0.00,,,0.00,Wunderground v.1.15,2013-07-18 10:20:00,
2013-07-18 03:25:00,60.6,55.4,29.84,NNW,336,0.0,0.0,83,0.00,,,0.00,Wunderground v.1.15,2013-07-18 10:25:00,
2013-07-18 03:40:00,60.6,55.7,29.83,NNW,336,0.0,0.0,84,0.00,,,0.00,Wunderground v.1.15,2013-07-18 10:40:00,
2013-07-18 03:45:00,60.6,55.7,29.83,NNW,336,0.0,0.0,84,0.00,,,0.00,Wunderground v.1.15,2013-07-18 10:45:00,
2013-07-18 03:50:00,60.8,55.9,29.83,NNW,336,0.0,0.0,84,0.00,,,0.00,Wunderground v.1.15,2013-07-18 10:50:00,
2013-07-18 03:55:00,60.9,56.4,29.83,NNW,336,0.0,1.0,85,0.00,,,0.00,Wunderground v.1.15,2013-07-18 10:55:00,
2013-07-18 04:10:00,61.1,56.9,29.83,NNW,336,1.0,1.0,86,0.00,,,0.00,Wunderground v.1.15,2013-07-18 11:10:00,
2013-07-18 04:15:00,61.2,57.0,29.83,NNW,336,1.0,1.0,86,0.00,,,0.00,Wunderground v.1.15,2013-07-18 11:15:00,
2013-07-18 04:20:00,61.1,56.9,29.83,NNW,336,1.0,1.0,86,0.00,,,0.00,Wunderground v.1.15,2013-07-18 11:20:00,
2013-07-18 04:25:00,61.1,56.9,29.83,NNW,336,0.0,1.0,86,0.00,,,0.00,Wunderground v.1.15,2013-07-18 11:25:00,
2013-07-18 04:35:00,60.8,56.6,29.83,NNW,336,0.0,0.0,86,0.00,,,0.00,Wunderground v.1.15,2013-07-18 11:35:00,
2013-07-18 04:40:00,60.6,56.4,29.83,NNW,336,0.0,0.0,86,0.00,,,0.00,Wunderground v.1.15,2013-07-18 11:40:00,
2013-07-18 04:45:00,60.5,56.3,29.83,NNW,336,0.0,0.0,86,0.00,,,0.00,Wunderground v.1.15,2013-07-18 11:45:00,
2013-07-18 04:50:00,60.5,56.3,29.83,NNW,336,0.0,0.0,86,0.00,,,0.00,Wunderground v.1.15,2013-07-18 11:50:00,
2013-07-18 05:05:00,60.0,56.1,29.83,NNW,336,0.0,0.0,87,0.00,,,0.00,Wunderground v.1.15,2013-07-18 12:05:00,
2013-07-18 05:10:00,59.8,55.9,29.83,NNW,336,0.0,0.0,87,0.00,,,0.00,Wunderground v.1.15,2013-07-18 12:10:00,
2013-07-18 05:25:00,59.5,55.6,29.84,NNW,336,0.0,0.0,87,0.00,,,0.00,Wunderground v.1.15,2013-07-18 12:25:00,
2013-07-18 05:35:00,59.4,55.5,29.84,NNW,336,0.0,0.0,87,0.00,,,0.00,Wunderground v.1.15,2013-07-18 12:35:00,
2013-07-18 05:40:00,59.4,55.5,29.84,NNW,336,0.0,0.0,87,0.00,,,0.00,Wunderground v.1.15,2013-07-18 12:40:00,
2013-07-18 05:55:00,59.4,55.5,29.84,NNW,336,0.0,0.0,87,0.00,,,0.00,Wunderground v.1.15,2013-07-18 12:55:00,
2013-07-18 06:05:00,59.4,55.8,29.85,NNW,336,0.0,0.0,88,0.00,,,0.00,Wunderground v.1.15,2013-07-18 13:05:00,
2013-07-18 06:20:00,59.7,56.5,29.85,NNW,336,0.0,0.0,89,0.00,,,0.00,Wunderground v.1.15,2013-07-18 13:20:00,
2013-07-18 06:30:00,59.8,56.6,29.85,NNW,336,0.0,0.0,89,0.00,,,0.00,Wunderground v.1.15,2013-07-18 13:30:00,
2013-07-18 06:40:00,60.0,56.7,29.86,NNW,336,0.0,0.0,89,0.00,,,0.00,Wunderground v.1.15,2013-07-18 13:40:00,
2013-07-18 06:45:00,60.0,56.7,29.86,NNW,336,0.0,0.0,89,0.00,,,0.00,Wunderground v.1.15,2013-07-18 13:45:00,
2013-07-18 06:50:00,60.1,56.8,29.86,NNW,336,0.0,0.0,89,0.00,,,0.00,Wunderground v.1.15,2013-07-18 13:50:00,
2013-07-18 07:10:00,61.4,58.1,29.86,NNW,336,0.0,0.0,89,0.00,,,0.00,Wunderground v.1.15,2013-07-18 14:10:00,
2013-07-18 07:20:00,62.4,58.8,29.86,NNW,336,0.0,0.0,88,0.00,,,0.00,Wunderground v.1.15,2013-07-18 14:20:00,
2013-07-18 07:35:00,63.7,59.4,29.87,NNW,336,0.0,0.0,86,0.00,,,0.00,Wunderground v.1.15,2013-07-18 14:35:00,
2013-07-18 07:40:00,63.8,59.2,29.87,NNW,336,0.0,0.0,85,0.00,,,0.00,Wunderground v.1.15,2013-07-18 14:40:00,
2013-07-18 07:45:00,64.5,59.6,29.87,NNW,336,0.0,0.0,84,0.00,,,0.00,Wunderground v.1.15,2013-07-18 14:45:00,
2013-07-18 08:00:00,66.3,59.6,29.87,NNW,336,0.0,0.0,79,0.00,,,0.00,Wunderground v.1.15,2013-07-18 15:00:00,
2013-07-18 08:10:00,66.9,59.1,29.87,East,83,1.0,1.0,76,0.00,,,0.00,Wunderground v.1.15,2013-07-18 15:10:00,
2013-07-18 08:25:00,67.9,58.5,29.87,SE,133,1.0,1.0,72,0.00,,,0.00,Wunderground v.1.15,2013-07-18 15:25:00,
2013-07-18 08:30:00,68.4,59.0,29.87,SE,133,1.0,3.0,72,0.00,,,0.00,Wunderground v.1.15,2013-07-18 15:30:00,
2013-07-18 08:35:00,68.8,59.0,29.87,SE,133,1.0,5.0,71,0.00,,,0.00,Wunderground v.1.15,2013-07-18 15:35:00,
2013-07-18 08:40:00,68.9,58.7,29.87,SE,141,2.0,5.0,70,0.00,,,0.00,Wunderground v.1.15,2013-07-18 15:40:00,
2013-07-18 08:45:00,69.4,59.2,29.87,SE,141,2.0,2.0,70,0.00,,,0.00,Wunderground v.1.15,2013-07-18 15:45:00,
2013-07-18 09:01:00,70.5,59.4,29.87,SSE,168,1.0,2.0,68,0.00,,,0.00,Wunderground v.1.15,2013-07-18 16:01:00,
2013-07-18 09:10:00,70.6,58.7,29.87,SSE,158,2.0,2.0,66,0.00,,,0.00,Wunderground v.1.15,2013-07-18 16:10:00,
2013-07-18 09:20:00,70.5,59.0,29.87,SSE,147,2.0,3.0,67,0.00,,,0.00,Wunderground v.1.15,2013-07-18 16:20:00,
2013-07-18 09:35:00,71.3,59.4,29.87,SE,140,2.0,2.0,66,0.00,,,0.00,Wunderground v.1.15,2013-07-18 16:35:00,
2013-07-18 09:40:00,71.7,59.3,29.87,SSE,151,2.0,2.0,65,0.00,,,0.00,Wunderground v.1.15,2013-07-18 16:40:00,
2013-07-18 09:45:00,71.8,59.0,29.87,SSW,210,2.0,2.0,64,0.00,,,0.00,Wunderground v.1.15,2013-07-18 16:45:00,
2013-07-18 09:50:00,71.7,58.9,29.87,SSW,203,3.0,3.0,64,0.00,,,0.00,Wunderground v.1.15,2013-07-18 16:50:00,
2013-07-18 10:05:00,72.2,58.5,29.87,SSW,209,3.0,3.0,62,0.00,,,0.00,Wunderground v.1.15,2013-07-18 17:05:00,
2013-07-18 10:15:00,72.0,58.3,29.87,SSW,200,4.0,4.0,62,0.00,,,0.00,Wunderground v.1.15,2013-07-18 17:15:00,
2013-07-18 10:35:00,72.9,59.1,29.87,SSE,162,3.0,3.0,62,0.00,,,0.00,Wunderground v.1.15,2013-07-18 17:35:00,
2013-07-18 10:40:00,73.4,59.1,29.87,SSW,193,4.0,4.0,61,0.00,,,0.00,Wunderground v.1.15,2013-07-18 17:40:00,
2013-07-18 10:45:00,73.4,59.1,29.87,SW,219,4.0,4.0,61,0.00,,,0.00,Wunderground v.1.15,2013-07-18 17:45:00,
2013-07-18 10:50:00,73.4,59.1,29.87,South,182,4.0,4.0,61,0.00,,,0.00,Wunderground v.1.15,2013-07-18 17:50:00,
2013-07-18 11:05:00,73.1,58.4,29.86,SSW,213,4.0,7.0,60,0.00,,,0.00,Wunderground v.1.15,2013-07-18 18:05:00,
2013-07-18 11:15:00,73.1,58.8,29.86,SSE,165,5.0,5.0,61,0.00,,,0.00,Wunderground v.1.15,2013-07-18 18:15:00,
2013-07-18 11:20:00,73.1,58.4,29.86,South,171,5.0,5.0,60,0.00,,,0.00,Wunderground v.1.15,2013-07-18 18:20:00,
2013-07-18 11:25:00,72.4,58.6,29.86,SSW,208,5.0,5.0,62,0.00,,,0.00,Wunderground v.1.15,2013-07-18 18:25:00,
2013-07-18 11:40:00,71.7,58.9,29.86,SSE,167,6.0,6.0,64,0.00,,,0.00,Wunderground v.1.15,2013-07-18 18:40:00,
2013-07-18 11:45:00,71.7,58.4,29.85,SW,223,6.0,8.0,63,0.00,,,0.00,Wunderground v.1.15,2013-07-18 18:45:00,
2013-07-18 11:50:00,71.3,58.5,29.85,South,185,6.0,6.0,64,0.00,,,0.00,Wunderground v.1.15,2013-07-18 18:50:00,
2013-07-18 12:11:00,71.2,58.0,29.84,SW,229,5.0,8.0,63,0.00,,,0.00,Wunderground v.1.15,2013-07-18 19:11:00,
2013-07-18 12:20:00,71.3,58.5,29.84,SSW,196,7.0,8.0,64,0.00,,,0.00,Wunderground v.1.15,2013-07-18 19:20:00,
2013-07-18 12:25:00,71.5,58.7,29.84,SW,217,6.0,6.0,64,0.00,,,0.00,Wunderground v.1.15,2013-07-18 19:25:00,
2013-07-18 12:35:00,73.1,59.3,29.84,SSW,192,6.0,6.0,62,0.00,,,0.00,Wunderground v.1.15,2013-07-18 19:35:00,
2013-07-18 12:50:00,74.5,59.2,29.84,South,189,5.0,8.0,59,0.00,,,0.00,Wunderground v.1.15,2013-07-18 19:50:00,
2013-07-18 12:55:00,73.6,59.3,29.84,SW,226,6.0,8.0,61,0.00,,,0.00,Wunderground v.1.15,2013-07-18 19:55:00,
2013-07-18 13:00:00,73.1,58.8,29.84,SW,236,7.0,7.0,61,0.00,,,0.00,Wunderground v.1.15,2013-07-18 20:00:00,
2013-07-18 13:05:00,72.2,59.3,29.83,SSW,206,7.0,7.0,64,0.00,,,0.00,Wunderground v.1.15,2013-07-18 20:05:00,
2013-07-18 13:20:00,72.4,59.5,29.83,SW,224,7.0,8.0,64,0.00,,,0.00,Wunderground v.1.15,2013-07-18 20:20:00,
2013-07-18 13:25:00,72.2,58.9,29.83,SW,223,8.0,8.0,63,0.00,,,0.00,Wunderground v.1.15,2013-07-18 20:25:00,
2013-07-18 13:30:00,71.8,59.0,29.83,SW,230,8.0,9.0,64,0.00,,,0.00,Wunderground v.1.15,2013-07-18 20:30:00,
2013-07-18 13:40:00,72.5,59.2,29.83,SW,230,7.0,8.0,63,0.00,,,0.00,Wunderground v.1.15,2013-07-18 20:40:00,
2013-07-18 13:45:00,72.9,58.7,29.83,SSW,199,7.0,12.0,61,0.00,,,0.00,Wunderground v.1.15,2013-07-18 20:45:00,
2013-07-18 13:50:00,71.7,59.3,29.83,SSW,196,8.0,8.0,65,0.00,,,0.00,Wunderground v.1.15,2013-07-18 20:50:00,
2013-07-18 14:10:00,72.0,58.7,29.82,SSW,193,9.0,9.0,63,0.00,,,0.00,Wunderground v.1.15,2013-07-18 21:10:00,
2013-07-18 14:15:00,72.4,59.1,29.82,SSW,198,8.0,9.0,63,0.00,,,0.00,Wunderground v.1.15,2013-07-18 21:15:00,
2013-07-18 14:20:00,72.9,58.7,29.81,SW,222,8.0,8.0,61,0.00,,,0.00,Wunderground v.1.15,2013-07-18 21:20:00,
2013-07-18 14:35:00,73.8,59.0,29.80,SSW,202,6.0,7.0,60,0.00,,,0.00,Wunderground v.1.15,2013-07-18 21:35:00,
2013-07-18 14:40:00,73.8,59.5,29.80,South,191,6.0,7.0,61,0.00,,,0.00,Wunderground v.1.15,2013-07-18 21:40:00,
2013-07-18 14:45:00,74.3,59.0,29.80,South,182,6.0,6.0,59,0.00,,,0.00,Wunderground v.1.15,2013-07-18 21:45:00,
2013-07-18 14:50:00,75.2,58.9,29.80,SSW,206,6.0,7.0,57,0.00,,,0.00,Wunderground v.1.15,2013-07-18 21:50:00,
2013-07-18 14:55:00,75.5,59.7,29.80,SW,219,5.0,6.0,58,0.00,,,0.00,Wunderground v.1.15,2013-07-18 21:55:00,
2013-07-18 15:00:00,75.7,59.4,29.80,SSE,162,5.0,5.0,57,0.00,,,0.00,Wunderground v.1.15,2013-07-18 22:00:00,
2013-07-18 15:11:00,76.6,58.7,29.79,SW,217,5.0,7.0,54,0.00,,,0.00,Wunderground v.1.15,2013-07-18 22:11:00,
2013-07-18 15:15:00,77.0,58.6,29.78,SW,229,5.0,7.0,53,0.00,,,0.00,Wunderground v.1.15,2013-07-18 22:15:00,
2013-07-18 15:20:00,77.5,58.5,29.78,SSW,196,5.0,10.0,52,0.00,,,0.00,Wunderground v.1.15,2013-07-18 22:20:00,
2013-07-18 15:25:00,77.9,58.9,29.78,SSW,202,6.0,6.0,52,0.00,,,0.00,Wunderground v.1.15,2013-07-18 22:25:00,
2013-07-18 15:30:00,77.9,58.9,29.78,SSW,202,5.0,6.0,52,0.00,,,0.00,Wunderground v.1.15,2013-07-18 22:30:00,
2013-07-18 15:45:00,79.4,60.2,29.77,South,174,4.0,6.0,52,0.00,,,0.00,Wunderground v.1.15,2013-07-18 22:45:00,
2013-07-18 15:55:00,79.6,59.9,29.77,SSE,167,4.0,4.0,51,0.00,,,0.00,Wunderground v.1.15,2013-07-18 22:55:00,
2013-07-18 16:00:00,79.9,60.2,29.77,South,182,4.0,4.0,51,0.00,,,0.00,Wunderground v.1.15,2013-07-18 23:00:00,
2013-07-18 16:20:00,81.1,60.7,29.76,WSW,256,4.0,4.0,50,0.00,,,0.00,Wunderground v.1.15,2013-07-18 23:20:00,
2013-07-18 16:25:00,81.5,59.3,29.76,NNW,330,4.0,5.0,47,0.00,,,0.00,Wunderground v.1.15,2013-07-18 23:25:00,
2013-07-18 16:30:00,81.9,59.7,29.76,WNW,295,4.0,10.0,47,0.00,,,0.00,Wunderground v.1.15,2013-07-18 23:30:00,
2013-07-18 16:40:00,81.3,59.1,29.76,WNW,289,5.0,11.0,47,0.00,,,0.00,Wunderground v.1.15,2013-07-18 23:40:00,
2013-07-18 16:55:00,80.9,59.4,29.75,North,354,5.0,5.0,48,0.00,,,0.00,Wunderground v.1.15,2013-07-18 23:55:00,
2013-07-18 17:05:00,81.1,59.6,29.75,WNW,301,5.0,10.0,48,0.00,,,0.00,Wunderground v.1.15,2013-07-19 00:05:00,
2013-07-18 17:10:00,81.1,59.6,29.75,WNW,298,5.0,6.0,48,0.00,,,0.00,Wunderground v.1.15,2013-07-19 00:10:00,
2013-07-18 17:15:00,80.5,59.6,29.75,NNW,329,5.0,7.0,49,0.00,,,0.00,Wunderground v.1.15,2013-07-19 00:15:00,
2013-07-18 17:30:00,79.9,59.6,29.74,NW,318,5.0,5.0,50,0.00,,,0.00,Wunderground v.1.15,2013-07-19 00:30:00,
2013-07-18 17:40:00,79.9,59.6,29.74,NW,323,5.0,5.0,50,0.00,,,0.00,Wunderground v.1.15,2013-07-19 00:40:00,
2013-07-18 18:05:00,79.7,58.8,29.74,WNW,287,5.0,5.0,49,0.00,,,0.00,Wunderground v.1.15,2013-07-19 01:05:00,
2013-07-18 18:10:00,79.4,58.6,29.74,NW,308,5.0,5.0,49,0.00,,,0.00,Wunderground v.1.15,2013-07-19 01:10:00,
2013-07-18 18:15:00,79.0,58.8,29.74,NW,323,5.0,5.0,50,0.00,,,0.00,Wunderground v.1.15,2013-07-19 01:15:00,
2013-07-18 18:25:00,78.6,59.0,29.74,WNW,295,4.0,6.0,51,0.00,,,0.00,Wunderground v.1.15,2013-07-19 01:25:00,
2013-07-18 18:30:00,78.3,58.7,29.74,NNW,329,5.0,6.0,51,0.00,,,0.00,Wunderground v.1.15,2013-07-19 01:30:00,
2013-07-18 18:35:00,77.7,58.7,29.74,NW,311,5.0,9.0,52,0.00,,,0.00,Wunderground v.1.15,2013-07-19 01:35:00,
2013-07-18 18:50:00,76.1,58.2,29.74,WNW,295,5.0,5.0,54,0.00,,,0.00,Wunderground v.1.15,2013-07-19 01:50:00,
2013-07-18 19:00:00,75.3,58.0,29.74,NW,306,5.0,5.0,55,0.00,,,0.00,Wunderground v.1.15,2013-07-19 02:00:00,
2013-07-18 19:11:00,73.9,57.7,29.75,West,278,5.0,5.0,57,0.00,,,0.00,Wunderground v.1.15,2013-07-19 02:11:00,
2013-07-18 19:15:00,73.4,57.2,29.75,WNW,302,5.0,5.0,57,0.00,,,0.00,Wunderground v.1.15,2013-07-19 02:15:00,
2013-07-18 19:20:00,73.1,57.0,29.75,NW,313,5.0,5.0,57,0.00,,,0.00,Wunderground v.1.15,2013-07-19 02:20:00,
2013-07-18 19:30:00,72.4,57.3,29.75,NW,316,5.0,5.0,59,0.00,,,0.00,Wunderground v.1.15,2013-07-19 02:30:00,
2013-07-18 19:35:00,71.8,56.7,29.75,NW,319,5.0,5.0,59,0.00,,,0.00,Wunderground v.1.15,2013-07-19 02:35:00,
2013-07-18 19:45:00,71.0,56.4,29.75,NW,305,5.0,5.0,60,0.00,,,0.00,Wunderground v.1.15,2013-07-19 02:45:00,
2013-07-18 19:56:00,70.1,56.5,29.76,WNW,298,4.0,4.0,62,0.00,,,0.00,Wunderground v.1.15,2013-07-19 02:56:00,
2013-07-18 20:00:00,69.8,56.2,29.76,West,271,4.0,4.0,62,0.00,,,0.00,Wunderground v.1.15,2013-07-19 03:00:00,
2013-07-18 20:05:00,69.6,56.0,29.76,NNW,328,3.0,4.0,62,0.00,,,0.00,Wunderground v.1.15,2013-07-19 03:05:00,
2013-07-18 20:15:00,69.3,56.2,29.76,NNW,332,4.0,5.0,63,0.00,,,0.00,Wunderground v.1.15,2013-07-19 03:15:00,
2013-07-18 20:26:00,68.9,56.2,29.77,WNW,294,3.0,3.0,64,0.00,,,0.00,Wunderground v.1.15,2013-07-19 03:26:00,
2013-07-18 20:30:00,68.9,56.6,29.77,NW,316,3.0,5.0,65,0.00,,,0.00,Wunderground v.1.15,2013-07-19 03:30:00,
2013-07-18 20:35:00,68.8,56.6,29.77,NW,319,4.0,5.0,65,0.00,,,0.00,Wunderground v.1.15,2013-07-19 03:35:00,
2013-07-18 20:40:00,68.6,56.4,29.77,NW,323,3.0,3.0,65,0.00,,,0.00,Wunderground v.1.15,2013-07-19 03:40:00,
2013-07-18 20:51:00,68.4,56.6,29.78,NW,320,2.0,2.0,66,0.00,,,0.00,Wunderground v.1.15,2013-07-19 03:51:00,
2013-07-18 20:55:00,68.4,56.2,29.78,NW,320,2.0,2.0,65,0.00,,,0.00,Wunderground v.1.15,2013-07-19 03:55:00,
2013-07-18 21:00:00,68.3,56.1,29.78,NW,320,2.0,3.0,65,0.00,,,0.00,Wunderground v.1.15,2013-07-19 04:00:00,
2013-07-18 21:05:00,68.1,55.9,29.78,NW,320,2.0,3.0,65,0.00,,,0.00,Wunderground v.1.15,2013-07-19 04:05:00,
2013-07-18 21:10:00,68.1,55.9,29.78,NW,320,2.0,3.0,65,0.00,,,0.00,Wunderground v.1.15,2013-07-19 04:10:00,
2013-07-18 21:25:00,67.6,55.4,29.78,NW,320,1.0,1.0,65,0.00,,,0.00,Wunderground v.1.15,2013-07-19 04:25:00,
2013-07-18 21:30:00,67.6,55.4,29.78,NW,320,1.0,1.0,65,0.00,,,0.00,Wunderground v.1.15,2013-07-19 04:30:00,
2013-07-18 21:35:00,67.4,55.2,29.79,NW,320,1.0,2.0,65,0.00,,,0.00,Wunderground v.1.15,2013-07-19 04:35:00,
2013-07-18 21:50:00,67.4,55.6,29.79,NW,320,0.0,0.0,66,0.00,,,0.00,Wunderground v.1.15,2013-07-19 04:50:00,
2013-07-18 22:00:00,67.1,55.4,29.79,NW,320,0.0,0.0,66,0.00,,,0.00,Wunderground v.1.15,2013-07-19 05:00:00,
2013-07-18 22:05:00,66.9,55.6,29.79,NW,320,0.0,0.0,67,0.00,,,0.00,Wunderground v.1.15,2013-07-19 05:05:00,
2013-07-18 22:20:00,66.4,56.3,29.80,NW,320,0.0,0.0,70,0.00,,,0.00,Wunderground v.1.15,2013-07-19 05:20:00,
2013-07-18 22:30:00,66.4,57.9,29.80,NW,320,0.0,0.0,74,0.00,,,0.00,Wunderground v.1.15,2013-07-19 05:30:00,
2013-07-18 22:46:00,65.9,58.1,29.79,NW,320,0.0,0.0,76,0.00,,,0.00,Wunderground v.1.15,2013-07-19 05:46:00,
2013-07-18 22:50:00,65.6,57.8,29.79,NW,320,0.0,0.0,76,0.00,,,0.00,Wunderground v.1.15,2013-07-19 05:50:00,
2013-07-18 22:55:00,65.4,58.0,29.79,NW,320,0.0,0.0,77,0.00,,,0.00,Wunderground v.1.15,2013-07-19 05:55:00,
2013-07-18 23:00:00,65.3,57.9,29.79,NW,320,0.0,0.0,77,0.00,,,0.00,Wunderground v.1.15,2013-07-19 06:00:00,
2013-07-18 23:05:00,65.1,58.1,29.80,NW,320,0.0,0.0,78,0.00,,,0.00,Wunderground v.1.15,2013-07-19 06:05:00,
2013-07-18 23:10:00,65.1,58.1,29.80,NW,320,0.0,0.0,78,0.00,,,0.00,Wunderground v.1.15,2013-07-19 06:10:00,
2013-07-18 23:25:00,64.6,57.9,29.79,NW,320,0.0,0.0,79,0.00,,,0.00,Wunderground v.1.15,2013-07-19 06:25:00,
2013-07-18 23:30:00,64.6,57.9,29.79,NW,320,0.0,0.0,79,0.00,,,0.00,Wunderground v.1.15,2013-07-19 06:30:00,
2013-07-18 23:35:00,64.5,57.8,29.79,NW,320,0.0,0.0,79,0.00,,,0.00,Wunderground v.1.15,2013-07-19 06:35:00,
2013-07-18 23:50:00,64.1,57.8,29.78,NW,320,0.0,0.0,80,0.00,,,0.00,Wunderground v.1.15,2013-07-19 06:50:00,
2013-07-18 23:55:00,64.1,57.8,29.78,NW,320,0.0,0.0,80,0.00,,,0.00,Wunderground v.1.15,2013-07-19 06:55:00,